National Weather Service United States Department of Commerce

Heavy snow and hazardous travel for portions of the Great Lakes, Northeast, and New England

Heavy snow, bitterly cold temperatures, and treacherous travel will be likely from the Great Lakes to the Northeast, and into New England over the next couple of days. Heavy Lake Effect snow of one to two feet will impact areas downwind of Lake Eerie and Ontario. Widespread snowfall of 6 to 12 inches will also impact much of northern New England. Read More >

                                        ZTL Airspace Summary / KGSP TAF                    For ATC Planning Purposes Only
ZTL Airspace Summary:
A cold front will move southeast through ZTL today. Expect VFR conditions over most of ZTL with patchy MVFR/IFR conditions and occasional snow showers in TN/VA and the NC mountains. Surface winds will be southwest ahead of the front at 5-15kts, then shifting northwest and will become gusty to 30kts behind the front. Compression winds of 70-90kts are possible between downwind and final approach at ATL. Flight Hazards: LGT-MOD Turbulence at all altitudes and LGT Rime icing 020-120 over TN/VA/NC.

Updated:12/12/2017 6:12 AM
 

Greenville Spartanburg Terminal Aerodrome Forecast:
 
FTUS41 KGSP 121736
KGSP 121734Z 1218/1318 34015G25KT P6SM SCT050
     FM121900 30011G23KT P6SM FEW250
     FM130200 28010KT P6SM SKC
     FM130600 24005KT P6SM SKC

 

GSP METAR:  
SAUS70 KGSP 121700 RRF
METAR KGSP 121653Z 35011G23KT 10SM SCT050 12/M01 A2976 RMK AO2 SLP077
     T01171011

Go to KGSP TAF TDA
Go to KGSP TAF TDA

GSP TRACON HAZARDS
GSP TRACON: SFC-10000
AVG CIG BASE WHERE REPORTED BLW 10000FT: NONE REPORTED
LOWEST REPORTED CIG: NONE REPORTED
LOWEST REPORTED FLIGHT CAT: VFR
METARS:
KFQD 121725Z AUTO 30016G25KT 10SM SCT050 11/M03 A2973 RMK AO2 T01051028
KSPA 121735Z AUTO 33014G22KT 10SM CLR 11/M03 A2975 RMK AO2
KLUX 121735Z AUTO 31011G15KT 10SM SCT048 12/01 A2974 RMK AO2
KCEU 121654Z AUTO 31013G22KT 10SM CLR 12/M02 A2980 RMK AO2 PK WND 30027/1612 SLP089 T01171017
KGSP 121653Z 35011G23KT 10SM SCT050 12/M01 A2976 RMK AO2 SLP077 T01171011
KGMU 121653Z 29005KT 10SM CLR 12/M01 A2976 RMK AO2 SLP078 T01221011
KLQK 121735Z AUTO 31014G19KT 10SM SCT060 12/M02 A2976 RMK AO2 T01211019
KAND 121656Z AUTO 31021G26KT 10SM CLR 12/M02 A2978 RMK AO2 PK WND 28026/1605 RAE05 SLP084 P0000 T01221017
KGYH 121647Z 31004KT 10SM SKC 12/M01 A2976
KGRD 121656Z AUTO 31008G17KT 270V340 10SM CLR 13/M01 A2977 RMK AO2 SLP080 T01281006

GSP TRACON HAZARD

Forecast Surface Map Loop / Collaborative Convective Forecast Product / Vertical Wind Profile
Weather Map

 

AIRMETs & SIGMETS/ Southeast Radar loop / Satellite Image (click on image to enlarge)
Weather Map Southeast Radar Loop

satellite